1988 JOAN:MIRIAM (1988285N09318)


On this page: IBTrACS data - Map and Plots - Positions - Intensities - Original source data

Summary

Start Oct 10
End Nov 2
Basins EP
NA
LMI 125 kt
Sources hurdat_atl
hurdat_epa
jtwc_ep
td9636
atcf
atcf
In WMO? Yes
Previous storm 1988 ODESSA (WP)
Previous in basin 1988 ISAAC (NA)
Concurrent storms 1988 NELSON (WP)
1988 ODESSA (WP)
1988 JOAN (NA)
1988 MISSING (WP)
1988 PAT (WP)
1988 PAT (WP)
1988 MISSING (NI)
1988 RUBY (WP)
1989 ADELININA (SI)
1988 TESS (WP)
1988 TESS (WP)
Next in basin Missing
Next storm 1988 MISSING (WP)

top of page IBTrACS Data: File Access

top of page HURSAT Data: File Access

Image of storm

top of page Plots:

Map of storm track will not appear if FTP is down
Time series of cyclone Maximum Sustained Wind will not appear if FTP is down
Time series of cyclone Minimum Central Pressure will not appear if FTP is down

top of page Track Data:Position

hurdat_atl hurdat_epa jtwc_ep td9636 atcf atcf
Date Lat Lon Lat Lon Lat Lon Lat Lon Lat Lon Lat Lon
1988-10-10 18:00:00 8.9 -42.2 8.9 -42.2
1988-10-11 00:00:00 9.5 -43.6 9.5 -43.6
1988-10-11 06:00:00 10.1 -45.0 10.1 -45.0
1988-10-11 12:00:00 10.7 -46.4 10.7 -46.4
1988-10-11 18:00:00 11.2 -47.9 11.2 -47.9
1988-10-12 00:00:00 11.5 -49.0 11.5 -49.0
1988-10-12 06:00:00 11.8 -50.1 11.8 -50.1
1988-10-12 12:00:00 12.1 -51.3 12.1 -51.3
1988-10-12 18:00:00 12.3 -52.5 12.3 -52.5
1988-10-13 00:00:00 12.4 -53.8 12.4 -53.8
1988-10-13 06:00:00 12.5 -54.9 12.5 -54.9
1988-10-13 12:00:00 12.6 -56.0 12.6 -56.0
1988-10-13 18:00:00 12.7 -57.1 12.7 -57.1
1988-10-14 00:00:00 12.6 -58.3 12.6 -58.3
1988-10-14 06:00:00 12.4 -59.4 12.4 -59.4
1988-10-14 12:00:00 12.2 -60.0 12.2 -60.0
1988-10-14 18:00:00 12.0 -60.8 12.0 -60.8
1988-10-15 00:00:00 12.1 -61.5 12.1 -61.5
1988-10-15 06:00:00 12.1 -62.8 12.1 -62.8
1988-10-15 12:00:00 12.0 -63.8 12.0 -63.8
1988-10-15 18:00:00 11.9 -64.9 11.9 -64.9
1988-10-16 00:00:00 12.0 -66.1 12.0 -66.1
1988-10-16 06:00:00 12.0 -67.2 12.0 -67.2
1988-10-16 12:00:00 11.9 -68.2 11.9 -68.2
1988-10-16 18:00:00 12.0 -69.2 12.0 -69.2
hurdat_atl hurdat_epa jtwc_ep td9636 atcf atcf
1988-10-17 00:00:00 12.0 -70.2 12.0 -70.2
1988-10-17 06:00:00 12.0 -71.2 12.0 -71.2
1988-10-17 12:00:00 11.9 -72.1 11.9 -72.1
1988-10-17 18:00:00 11.8 -73.0 11.8 -73.0
1988-10-18 00:00:00 11.8 -74.0 11.8 -74.0
1988-10-18 06:00:00 11.7 -75.0 11.7 -75.0
1988-10-18 12:00:00 11.5 -75.8 11.5 -75.8
1988-10-18 18:00:00 11.3 -76.5 11.3 -76.5
1988-10-19 00:00:00 11.2 -77.2 11.2 -77.2
1988-10-19 06:00:00 11.3 -77.8 11.3 -77.8
1988-10-19 12:00:00 11.4 -78.3 11.4 -78.3
1988-10-19 18:00:00 11.3 -78.9 11.3 -78.9
1988-10-20 00:00:00 11.3 -79.3 11.3 -79.3
1988-10-20 06:00:00 11.1 -79.8 11.1 -79.8
1988-10-20 12:00:00 11.1 -79.5 11.1 -79.5
1988-10-20 18:00:00 11.3 -79.9 11.3 -79.9
1988-10-21 00:00:00 11.5 -80.3 11.5 -80.3
1988-10-21 06:00:00 11.5 -80.7 11.5 -80.7
1988-10-21 12:00:00 11.6 -81.2 11.6 -81.2
1988-10-21 18:00:00 11.8 -81.8 11.8 -81.8
1988-10-22 00:00:00 11.9 -82.5 11.9 -82.5
1988-10-22 06:00:00 11.9 -83.2 11.9 -83.2
1988-10-22 12:00:00 11.9 -83.9 11.9 -83.9
1988-10-22 18:00:00 12.0 -85.0 12.0 -85.0
hurdat_atl hurdat_epa jtwc_ep td9636 atcf atcf
1988-10-23 00:00:00 12.1 -85.9 12.1 -85.9
1988-10-23 06:00:00 12.2 -86.8 12.2 -86.8 12.2 -86.8 12.2 -86.8 12.2 -86.8 12.2 -86.8
1988-10-23 12:00:00 12.5 -87.8 12.5 -87.8 12.5 -87.8 12.5 -87.8
1988-10-23 18:00:00 12.8 -88.7 12.8 -88.7 12.8 -88.7 12.8 -88.7
1988-10-24 00:00:00 13.1 -89.5 13.1 -89.5 13.1 -89.5 13.1 -89.5
1988-10-24 06:00:00 13.4 -90.2 13.4 -90.2 13.4 -90.2 13.4 -90.2
1988-10-24 12:00:00 13.6 -90.9 13.6 -90.9 13.6 -90.9 13.6 -90.9
1988-10-24 18:00:00 13.8 -91.5 13.8 -91.5 13.8 -91.5 13.8 -91.5
1988-10-25 00:00:00 14.0 -92.1 14.0 -92.1 14.0 -92.1 14.0 -92.1
1988-10-25 06:00:00 14.1 -92.7 14.1 -92.7 14.1 -92.8 14.1 -92.7
1988-10-25 12:00:00 14.0 -93.4 14.0 -93.4 14.0 -93.4 14.0 -93.4
1988-10-25 18:00:00 13.7 -94.0 13.7 -94.0 13.8 -94.0 13.7 -94.0
1988-10-26 00:00:00 13.4 -94.6 13.4 -94.6 13.4 -94.6 13.4 -94.6
1988-10-26 06:00:00 13.0 -95.2 13.0 -95.2 12.9 -95.3 13.0 -95.2
1988-10-26 12:00:00 12.5 -95.9 12.5 -95.9 12.5 -95.9 12.5 -95.9
1988-10-26 18:00:00 12.2 -96.3 12.2 -96.3 12.1 -96.4 12.2 -96.3
1988-10-27 00:00:00 11.9 -96.9 11.9 -96.9 11.9 -96.9 11.9 -96.9
1988-10-27 06:00:00 11.8 -97.6 11.8 -97.6 11.8 -97.6 11.8 -97.6
1988-10-27 12:00:00 11.8 -98.3 11.8 -98.3 11.8 -98.3 11.8 -98.3
1988-10-27 18:00:00 11.8 -98.9 11.8 -98.9 11.8 -98.9 11.8 -98.9
1988-10-28 00:00:00 11.9 -99.5 11.9 -99.5 11.9 -99.5 11.9 -99.5
1988-10-28 06:00:00 12.0 -100.0 12.0 -100.0 11.9 -99.9 12.0 -100.0
1988-10-28 12:00:00 12.0 -100.5 12.0 -100.5 12.0 -100.5 12.0 -100.5
1988-10-28 18:00:00 12.0 -101.6 12.0 -101.6 12.0 -101.5 12.0 -101.6
hurdat_atl hurdat_epa jtwc_ep td9636 atcf atcf
1988-10-29 00:00:00 12.1 -102.6 12.1 -102.6 12.1 -102.6 12.1 -102.6
1988-10-29 06:00:00 12.2 -103.7 12.2 -103.7 12.2 -103.7 12.2 -103.7
1988-10-29 12:00:00 12.3 -104.8 12.3 -104.8 12.3 -104.8 12.3 -104.8
1988-10-29 18:00:00 12.4 -105.8 12.4 -105.8 12.4 -105.9 12.4 -105.8
1988-10-30 00:00:00 12.6 -106.9 12.6 -106.9 12.6 -106.9 12.6 -106.9
1988-10-30 06:00:00 12.7 -108.0 12.7 -108.0 12.7 -107.9 12.7 -108.0
1988-10-30 12:00:00 12.9 -109.0 12.9 -109.0 12.9 -109.0 12.9 -109.0
1988-10-30 18:00:00 13.4 -110.3 13.4 -110.3 13.4 -110.3 13.4 -110.3
1988-10-31 00:00:00 14.0 -111.5 14.0 -111.5 14.0 -111.5 14.0 -111.5
1988-10-31 06:00:00 14.6 -112.3 14.6 -112.3 14.6 -112.4 14.6 -112.3
1988-10-31 12:00:00 15.2 -113.1 15.2 -113.1 15.2 -113.1 15.2 -113.1
1988-10-31 18:00:00 15.8 -113.6 15.8 -113.6 15.8 -113.6 15.8 -113.6
1988-11-01 00:00:00 16.4 -114.1 16.4 -114.1 16.4 -114.1 16.4 -114.1
1988-11-01 06:00:00 16.8 -114.8 16.8 -114.8 16.8 -114.8 16.8 -114.8
1988-11-01 12:00:00 17.2 -115.5 17.2 -115.5 17.2 -115.5 17.2 -115.5
1988-11-01 18:00:00 17.6 -116.2 17.6 -116.2 17.6 -116.2 17.6 -116.2
1988-11-02 00:00:00 17.9 -116.9 17.9 -116.9 17.9 -116.9 17.9 -116.9
1988-11-02 06:00:00 18.2 -117.6 18.2 -117.6 18.2 -117.6 18.2 -117.6
1988-11-02 12:00:00 18.4 -118.3 18.4 -118.3 18.4 -118.3 18.4 -118.3

top of pageTrack Data:Intensity

hurdat_atl hurdat_epa jtwc_ep td9636 atcf atcf
Date Wind Pres Wind Pres Wind Pres Wind Pres Wind Pres Wind Pres
1988-10-10 18:00:00 25. 1010. 25. 1010.
1988-10-11 00:00:00 30. 1008. 30. 1008.
1988-10-11 06:00:00 35. 1005. 35. 1005.
1988-10-11 12:00:00 40. 1003. 40. 1003.
1988-10-11 18:00:00 45. 1000. 45. 1000.
1988-10-12 00:00:00 50. 999. 50. 999.
1988-10-12 06:00:00 45. 1000. 45. 1000.
1988-10-12 12:00:00 45. 1003. 45. 1003.
1988-10-12 18:00:00 40. 1006. 40. 1006.
1988-10-13 00:00:00 40. 1007. 40. 1007.
1988-10-13 06:00:00 40. 1007. 40. 1007.
1988-10-13 12:00:00 40. 1006. 40. 1006.
1988-10-13 18:00:00 40. 1005. 40. 1005.
1988-10-14 00:00:00 40. 1003. 40. 1003.
1988-10-14 06:00:00 40. 1002. 40. 1002.
1988-10-14 12:00:00 45. 1001. 45. 1001.
1988-10-14 18:00:00 45. 1001. 45. 1001.
1988-10-15 00:00:00 45. 1003. 45. 1003.
1988-10-15 06:00:00 45. 1004. 45. 1004.
1988-10-15 12:00:00 45. 1004. 45. 1004.
1988-10-15 18:00:00 45. 1003. 45. 1003.
1988-10-16 00:00:00 45. 1002. 45. 1002.
1988-10-16 06:00:00 50. 1001. 50. 1001.
1988-10-16 12:00:00 50. 1000. 50. 1000.
1988-10-16 18:00:00 50. 999. 50. 999.
hurdat_atl hurdat_epa jtwc_ep td9636 atcf atcf
1988-10-17 00:00:00 55. 998. 55. 998.
1988-10-17 06:00:00 55. 997. 55. 997.
1988-10-17 12:00:00 60. 995. 60. 995.
1988-10-17 18:00:00 60. 993. 60. 993.
1988-10-18 00:00:00 65. 990. 65. 990.
1988-10-18 06:00:00 70. 987. 70. 987.
1988-10-18 12:00:00 75. 984. 75. 984.
1988-10-18 18:00:00 80. 980. 80. 980.
1988-10-19 00:00:00 90. 976. 90. 976.
1988-10-19 06:00:00 95. 970. 95. 970.
1988-10-19 12:00:00 105. 960. 105. 960.
1988-10-19 18:00:00 110. 953. 110. 953.
1988-10-20 00:00:00 105. 956. 105. 956.
1988-10-20 06:00:00 85. 967. 85. 967.
1988-10-20 12:00:00 70. 971. 70. 971.
1988-10-20 18:00:00 70. 973. 70. 973.
1988-10-21 00:00:00 75. 972. 75. 972.
1988-10-21 06:00:00 90. 970. 90. 970.
1988-10-21 12:00:00 100. 964. 100. 964.
1988-10-21 18:00:00 110. 952. 110. 952.
1988-10-22 00:00:00 120. 937. 120. 937.
1988-10-22 06:00:00 125. 932. 125. 932.
1988-10-22 12:00:00 120. 936. 120. 936.
1988-10-22 18:00:00 70. 983. 70. 983.
hurdat_atl hurdat_epa jtwc_ep td9636 atcf atcf
1988-10-23 00:00:00 55. 993. 55. 993.
1988-10-23 06:00:00 45. 1000. 45. 1000. 45. 45. 45. 1000. 45. 1000.
1988-10-23 12:00:00 50. 994. 50. 50. 50. 994.
1988-10-23 18:00:00 55. 998. 55. 50. 55. 998.
1988-10-24 00:00:00 60. 986. 60. 60. 60. 986.
1988-10-24 06:00:00 60. 987. 60. 60. 60. 987.
1988-10-24 12:00:00 55. 991. 55. 55. 55. 991.
1988-10-24 18:00:00 50. 994. 50. 55. 50. 994.
1988-10-25 00:00:00 50. 997. 50. 50. 50. 997.
1988-10-25 06:00:00 45. 1000. 45. 50. 45. 1000.
1988-10-25 12:00:00 40. 1002. 40. 40. 40. 1002.
1988-10-25 18:00:00 35. 1003. 35. 40. 35. 1003.
1988-10-26 00:00:00 30. 1004. 30. 30. 30. 1004.
1988-10-26 06:00:00 30. 1005. 30. 30. 30. 1005.
1988-10-26 12:00:00 30. 1005. 30. 30. 30. 1005.
1988-10-26 18:00:00 30. 1005. 30. 30. 30. 1005.
1988-10-27 00:00:00 30. 1005. 30. 30. 30. 1005.
1988-10-27 06:00:00 30. 1005. 30. 30. 30. 1005.
1988-10-27 12:00:00 30. 1005. 30. 30. 30. 1005.
1988-10-27 18:00:00 25. 1006. 25. 30. 25. 1006.
1988-10-28 00:00:00 25. 1007. 25. 25. 25. 1007.
1988-10-28 06:00:00 25. 1009. 25. 25. 25. 1009.
1988-10-28 12:00:00 20. 1010. 20. 20. 20. 1010.
1988-10-28 18:00:00 10. 10. 20. 10.
hurdat_atl hurdat_epa jtwc_ep td9636 atcf atcf
1988-10-29 00:00:00 10. 10. 10. 10.
1988-10-29 06:00:00 10. 10. 10. 10.
1988-10-29 12:00:00 10. 10. 10. 10.
1988-10-29 18:00:00 10. 10. 10. 10.
1988-10-30 00:00:00 10. 10. 10. 10.
1988-10-30 06:00:00 10. 10. 10. 10.
1988-10-30 12:00:00 20. 1008. 20. 20. 20. 1008.
1988-10-30 18:00:00 25. 1007. 25. 20. 25. 1007.
1988-10-31 00:00:00 25. 1007. 25. 25. 25. 1007.
1988-10-31 06:00:00 25. 1006. 25. 25. 25. 1006.
1988-10-31 12:00:00 30. 1006. 30. 30. 30. 1006.
1988-10-31 18:00:00 30. 1006. 30. 30. 30. 1006.
1988-11-01 00:00:00 30. 1006. 30. 30. 30. 1006.
1988-11-01 06:00:00 30. 1006. 30. 30. 30. 1006.
1988-11-01 12:00:00 30. 1006. 30. 30. 30. 1006.
1988-11-01 18:00:00 30. 1006. 30. 30. 30. 1006.
1988-11-02 00:00:00 30. 1007. 30. 30. 30. 1007.
1988-11-02 06:00:00 30. 1008. 30. 30. 30. 1008.
1988-11-02 12:00:00 25. 1010. 25. 25. 25. 1010.

top of page Links to source data

Source Source file Format
hurdat_atl tracks1851to2011.txt:1154:JOAN HURDAT
hurdat_epa tracks1949to2011_epa.html:529:MIRIAM HURDAT
jtwc_ep bep131988.txt ATCF
td9636 cons_worldwide_trop_cyclone_18710101-19891231-002:Line=6599 TD 9636
atcf bal111988.dat ATCF
atcf bep131988.dat ATCF